• Join FlightAware (Why Join?)
  • Login
  • US Flag 
02:14AM EDT


 

Airport Tracker/Info


-or-


 

Live Flight TrackerFlight Track Log ✈ ASQ4366 ✈ 08-May-2013 ✈ KIAH - KBHM

Flight Track Log - Related Links

Times and Time Zones

All times are in EDT time to prevent confusion due to time zone crossing. See the ASQ4366 flight status page for this flight to view local times or setup timezone preferences in your user account.

Time Position Orientation Groundspeed Altitude Reporting Facility
EDT Latitude Longitude Course Direction KTS MPH feet Rate Location/Type
09:28AM 29.9614 -95.3411 90° East 158 182 900  Level Houston Center
09:29AM 29.9464 -95.2839 107° East 208 239 3,000 2,280 Climbing Houston Center
09:30AM 29.9461 -95.2017 90° East 258 297 5,600 2,700 Climbing Houston Center
09:31AM 29.9492 -95.1125 88° East 275 316 8,600 2,280 Climbing Houston Center
09:32AM 29.9834 -94.8027 90° East  Level FlightAware Approximate
09:32AM 29.9553 -95.0194 86° East 289 333 10,400  Level Houston Center
09:33AM 29.9833 -94.6701 90° East  Level FlightAware Approximate
09:33AM 29.9608 -94.9072 87° East 345 397 11,500  Level Houston Center
09:34AM 29.9686 -94.7878 86° East 369 425 13,100 1,560 Climbing Houston Center
09:35AM 29.9764 -94.6642 86° East 380 437 14,700 1,920 Climbing Houston Center
09:36AM 29.9853 -94.5142 86° East 388 447 17,100 1,800 Climbing Houston Center
09:37AM 29.9947 -94.4058 84° East 388 447 18,500 1,140 Climbing Houston Center
09:38AM 30.0100 -94.2800 82° East 396 456 19,500 720 Climbing Houston Center
09:39AM 30.0286 -94.1169 82° East 423 487 20,000 420 Climbing Houston Center
09:40AM 30.0453 -93.9731 82° East 448 516 20,400 900 Climbing Houston Center
09:41AM 30.0617 -93.8317 82° East 448 516 21,900 1,440 Climbing Houston Center
09:42AM 30.0764 -93.6933 83° East 442 509 23,400 1,500 Climbing Houston Center
09:43AM 30.0919 -93.5553 83° East 440 506 25,000 1,620 Climbing Houston Center
09:45AM 30.1089 -93.3936 83° East 432 497 26,800 1,200 Climbing Houston Center
09:46AM 30.1239 -93.2575 83° East 433 498 27,500 1,020 Climbing Houston Center
09:47AM 30.1383 -93.1211 83° East 433 498 29,000 1,380 Climbing Houston Center
09:48AM 30.1639 -92.9894 77° East 426 490 30,400 1,380 Climbing Houston Center
09:49AM 30.2036 -92.8631 70° East 428 493 31,900 1,200 Climbing Houston Center
09:50AM 30.2786 -92.7258 58° Northeast 423 487 33,000 480 Climbing Houston Center
09:51AM 30.3475 -92.6042 57° Northeast 444 511 33,000  Level Houston Center
09:52AM 30.4178 -92.4783 57° Northeast 463 533 33,000  Level Houston Center
09:53AM 30.4950 -92.3419 57° Northeast 466 536 33,000  Level Houston Center
09:54AM 30.5661 -92.2144 57° Northeast 470 541 33,000  Level Houston Center
09:55AM 30.6342 -92.0897 58° Northeast 462 532 33,000  Level Houston Center
09:56AM 30.7017 -91.9681 57° Northeast 453 521 33,000  Level Houston Center
09:57AM 30.7678 -91.8475 57° Northeast 448 516 33,000  Level Houston Center
09:58AM 30.8483 -91.7014 57° Northeast 449 517 33,000  Level Houston Center
09:59AM 30.9164 -91.5775 57° Northeast 454 522 33,000  Level Houston Center
10:00AM 30.9847 -91.4531 57° Northeast 458 527 33,000  Level Houston Center
10:01AM 31.0578 -91.3189 58° Northeast 456 525 33,000  Level Houston Center
10:02AM 31.1261 -91.1925 58° Northeast 459 528 33,000  Level Houston Center
10:03AM 31.1933 -91.0686 58° Northeast 453 521 33,000  Level Houston Center
10:04AM 31.2597 -90.9442 58° Northeast 451 519 33,000  Level Houston Center
10:05AM 31.3272 -90.8192 58° Northeast 452 520 33,000  Level Houston Center
10:06AM 31.3953 -90.6933 58° Northeast 455 524 33,000  Level Houston Center
10:07AM 31.4750 -90.5425 58° Northeast 453 521 33,000  Level Houston Center
10:08AM 31.5411 -90.4169 58° Northeast 453 521 33,000  Level Houston Center
10:09AM 31.6089 -90.2906 58° Northeast 456 525 33,000  Level Houston Center
10:10AM 31.6753 -90.1644 58° Northeast 454 522 33,000  Level Houston Center
10:11AM 31.7422 -90.0383 58° Northeast 454 522 33,000  Level Houston Center
10:12AM 31.8108 -89.9050 59° Northeast 453 521 33,000  Level Memphis Center
10:13AM 31.8772 -89.7800 58° Northeast 453 521 33,000  Level Memphis Center
10:14AM 31.9456 -89.6522 58° Northeast 453 521 33,000 -300 Level Memphis Center
10:15AM 32.0094 -89.5244 59° Northeast 453 521 32,500 -960 Descending Memphis Center
10:16AM 32.0753 -89.3989 58° Northeast 453 521 31,100 -1,440 Descending Memphis Center
10:17AM 32.1389 -89.2778 58° Northeast 448 516 29,700 -1,440 Descending Memphis Center
10:18AM 32.2067 -89.1469 58° Northeast 448 516 28,300 -1,440 Descending Memphis Center
10:19AM 32.2742 -89.0158 59° Northeast 454 522 26,900 -1,440 Descending Memphis Center
10:20AM 32.3417 -88.8819 59° Northeast 459 528 25,500 -1,500 Descending Memphis Center
10:21AM 32.4131 -88.7553 56° Northeast 459 528 24,000 -1,260 Descending Memphis Center
10:22AM 32.4931 -88.6431 50° Northeast 454 522 23,000 -600 Descending Memphis Center
10:23AM 32.5708 -88.5281 51° Northeast 449 517 22,800 -840 Descending Memphis Center
10:24AM 32.6422 -88.4281 50° Northeast 449 517 21,400 -1,440 Descending Memphis Center
10:25AM 32.7136 -88.3178 52° Northeast 441 507 20,000 -840 Descending Memphis Center
10:27AM 32.8614 -88.0919 52° Northeast 437 503 19,000 -360 Descending Atlanta Center
10:28AM 32.9464 -87.9769 49° Northeast 428 493 19,000  Level Atlanta Center
10:29AM 33.0144 -87.8786 50° Northeast 428 493 19,000  Level Atlanta Center
10:30AM 33.0867 -87.7678 52° Northeast 428 493 19,000 -480 Level Atlanta Center
10:31AM 33.1608 -87.6592 51° Northeast 428 493 18,100 -1,200 Descending Atlanta Center
10:32AM 33.2000 -87.6061 49° Northeast 419 482 17,300 -2,040 Descending Atlanta Center
10:32AM 33.2347 -87.5556 51° Northeast 421 484 16,100 -2,760 Descending Atlanta Center
10:33AM 33.2633 -87.5094 53° Northeast 405 466 14,800 -2,700 Descending Atlanta Center
10:33AM 33.3003 -87.4511 53° Northeast 408 470 13,400 -2,760 Descending Atlanta Center
10:34AM 33.3158 -87.4144 63° Northeast 372 428 12,300 -2,700 Descending Atlanta Center
10:34AM 33.3431 -87.3436 65° Northeast 376 433 10,700 -1,800 Descending Atlanta Center
10:35AM 33.3567 -87.3017 69° East 330 380 10,300 -1,020 Descending Atlanta Center
10:35AM 33.3747 -87.2478 68° East 340 391 9,700 -1,680 Descending Atlanta Center
10:36AM 33.3883 -87.2083 68° East 274 315 8,600 -2,040 Descending Atlanta Center
10:36AM 33.4042 -87.1617 68° East 303 349 7,700 -2,280 Descending Atlanta Center
10:37AM 33.4153 -87.1297 67° East 272 313 6,600 -2,220 Descending Atlanta Center
10:37AM 33.4333 -87.0781 67° East 277 319 5,500 -1,740 Descending Atlanta Center
10:38AM 33.4467 -87.0364 69° East 271 312 4,700 -1,320 Descending Atlanta Center
10:38AM 33.4625 -86.9969 64° Northeast 264 304 4,200 -1,020 Descending Atlanta Center
10:39AM 33.4736 -86.9675 66° East 255 293 3,800 -900 Descending Atlanta Center
10:39AM 33.4892 -86.9206 68° East 259 298 3,300 -840 Descending Atlanta Center
10:40AM 33.4983 -86.8911 70° East 241 277 3,000 -720 Descending Atlanta Center
10:40AM 33.5117 -86.8517 68° East 240 276 2,600 -900 Descending Atlanta Center
10:41AM 33.5228 -86.8272 61° Northeast 167 192 2,000 -1,320 Descending Atlanta Center